Time;durP1;ratioP1;P1;durP2;ratioP2;P2;SDS_P1;SDS_P2;PMS_P1;PMS_P2;Temp;Humidity;BMP_temperature;BMP_pressure;BME280_temperature;BME280_humidity;BME280_pressure;Samples;Min_cycle;Max_cycle;Signal;HPM_P1;HPM_P2
2023/06/06 00:01:09;;;;;;;2.20;1.50;;;;;;;;;;5062974;28;20040;-85
2023/06/06 00:03:36;;;;;;;1.75;1.20;;;;;;;;;;5050964;28;20035;-85
2023/06/06 00:06:01;;;;;;;3.70;1.95;;;;;;;;;;5058878;28;20044;-85
2023/06/06 00:08:28;;;;;;;1.63;1.38;;;;;;;;;;5043316;28;20045;-85
2023/06/06 00:10:54;;;;;;;2.05;1.25;;;;;;;;;;5051359;28;20040;-83
2023/06/06 00:13:21;;;;;;;1.33;0.98;;;;;;;;;;5053990;28;20029;-83
2023/06/06 00:15:53;;;;;;;3.35;1.63;;;;;;;;;;5057852;28;20036;-83
2023/06/06 00:18:22;;;;;;;1.48;1.02;;;;;;;;;;5057232;28;20493;-83
2023/06/06 00:20:48;;;;;;;2.65;1.33;;;;;;;;;;5050709;28;20040;-84
2023/06/06 00:23:13;;;;;;;1.73;1.10;;;;;;;;;;5050496;28;20531;-83
2023/06/06 00:25:52;;;;;;;2.70;1.88;;;;;;;;;;5056324;28;20366;-84
2023/06/06 00:28:27;;;;;;;0.93;0.70;;;;;;;;;;5060834;28;20587;-85
2023/06/06 00:30:52;;;;;;;1.15;1.00;;;;;;;;;;5059359;28;20087;-84
2023/06/06 00:33:20;;;;;;;0.82;0.77;;;;;;;;;;5070132;28;20052;-84
2023/06/06 00:35:53;;;;;;;1.08;0.98;;;;;;;;;;5064977;28;20493;-85
2023/06/06 00:38:19;;;;;;;1.17;0.60;;;;;;;;;;5055694;28;20039;-84
2023/06/06 00:40:45;;;;;;;1.67;1.00;;;;;;;;;;5054650;28;20021;-84
2023/06/06 00:43:13;;;;;;;1.55;0.60;;;;;;;;;;5058840;28;20122;-83
2023/06/06 00:45:38;;;;;;;1.10;0.77;;;;;;;;;;5057880;28;20021;-84
2023/06/06 00:48:11;;;;;;;0.60;0.60;;;;;;;;;;5050691;28;20027;-83
2023/06/06 00:50:39;;;;;;;3.42;0.65;;;;;;;;;;5054134;28;20496;-86
2023/06/06 00:53:10;;;;;;;1.75;0.68;;;;;;;;;;5056846;28;20041;-86
2023/06/06 00:55:39;;;;;;;1.45;0.88;;;;;;;;;;5064150;28;20480;-84
2023/06/06 00:58:11;;;;;;;2.20;0.80;;;;;;;;;;5049127;28;20028;-85
2023/06/06 01:00:39;;;;;;;1.17;0.82;;;;;;;;;;5055686;28;20041;-87
2023/06/06 01:03:10;;;;;;;1.65;1.08;;;;;;;;;;5056880;28;20035;-85
2023/06/06 01:05:42;;;;;;;0.77;0.77;;;;;;;;;;5063627;28;20031;-83
2023/06/06 01:08:12;;;;;;;1.13;0.77;;;;;;;;;;5060440;28;20036;-86
2023/06/06 01:10:43;;;;;;;0.73;0.55;;;;;;;;;;5060984;28;20052;-85
2023/06/06 01:13:21;;;;;;;0.85;0.70;;;;;;;;;;5062355;28;20040;-83
2023/06/06 01:16:02;;;;;;;1.05;0.70;;;;;;;;;;5046901;28;20036;-83
2023/06/06 01:18:31;;;;;;;1.27;0.98;;;;;;;;;;5090306;28;20035;-84
2023/06/06 01:20:58;;;;;;;0.65;0.50;;;;;;;;;;5062481;28;20021;-88
2023/06/06 01:23:38;;;;;;;1.38;0.60;;;;;;;;;;5062762;28;20032;-87
2023/06/06 01:26:12;;;;;;;0.98;0.82;;;;;;;;;;5061247;28;20036;-88
2023/06/06 01:28:39;;;;;;;1.73;0.95;;;;;;;;;;5055082;28;20177;-87
2023/06/06 01:31:18;;;;;;;2.05;0.80;;;;;;;;;;5059987;28;20032;-87
2023/06/06 01:33:58;;;;;;;1.17;0.68;;;;;;;;;;5052743;28;20047;-88
2023/06/06 01:36:48;;;;;;;0.68;0.43;;;;;;;;;;5061440;28;20036;-87
2023/06/06 01:39:19;;;;;;;1.35;0.90;;;;;;;;;;5059344;28;20039;-87
2023/06/06 01:41:51;;;;;;;2.05;1.20;;;;;;;;;;5058303;28;20028;-87
2023/06/06 01:44:19;;;;;;;0.68;0.68;;;;;;;;;;5053495;28;20107;-87
2023/06/06 01:46:52;;;;;;;1.17;0.98;;;;;;;;;;5055485;28;20028;-86
2023/06/06 01:49:25;;;;;;;0.93;0.90;;;;;;;;;;5054897;28;20413;-86
2023/06/06 01:51:52;;;;;;;1.27;0.93;;;;;;;;;;5062199;28;20083;-85
2023/06/06 01:54:20;;;;;;;3.05;1.27;;;;;;;;;;5065420;28;20039;-85
2023/06/06 01:56:52;;;;;;;0.75;0.63;;;;;;;;;;5058075;28;20542;-86
2023/06/06 01:59:17;;;;;;;0.60;0.60;;;;;;;;;;5061231;28;20139;-88
2023/06/06 02:01:43;;;;;;;1.13;0.80;;;;;;;;;;5056908;28;20647;-87
2023/06/06 02:04:09;;;;;;;1.60;0.98;;;;;;;;;;5055623;28;20036;-86
2023/06/06 02:06:46;;;;;;;1.30;0.80;;;;;;;;;;5052009;28;20032;-85
2023/06/06 02:09:18;;;;;;;2.05;0.88;;;;;;;;;;5058560;28;20048;-86
2023/06/06 02:11:52;;;;;;;1.50;0.98;;;;;;;;;;5064210;28;20477;-86
2023/06/06 02:14:20;;;;;;;4.32;2.20;;;;;;;;;;5059475;28;20024;-86
2023/06/06 02:16:49;;;;;;;5.25;2.03;;;;;;;;;;5064798;28;20086;-87
2023/06/06 02:19:15;;;;;;;1.42;1.33;;;;;;;;;;5057540;28;20028;-86
2023/06/06 02:21:43;;;;;;;1.67;1.20;;;;;;;;;;5055302;28;20032;-85
2023/06/06 02:24:09;;;;;;;2.25;1.08;;;;;;;;;;5059974;28;20051;-86
2023/06/06 02:26:41;;;;;;;1.40;1.23;;;;;;;;;;5064102;28;20024;-85
2023/06/06 02:29:07;;;;;;;2.38;1.75;;;;;;;;;;5055772;28;20072;-86
2023/06/06 02:31:36;;;;;;;1.40;1.13;;;;;;;;;;5060236;28;20032;-85
2023/06/06 02:34:08;;;;;;;1.95;1.52;;;;;;;;;;5055136;28;20028;-85
2023/06/06 02:36:34;;;;;;;0.98;0.77;;;;;;;;;;5062871;28;20488;-86
2023/06/06 02:39:00;;;;;;;3.42;1.27;;;;;;;;;;5052437;28;20024;-87
2023/06/06 02:41:26;;;;;;;1.55;1.30;;;;;;;;;;5046248;28;20515;-86
2023/06/06 02:43:52;;;;;;;1.33;1.08;;;;;;;;;;5058474;28;21381;-84
2023/06/06 02:46:27;;;;;;;2.78;1.52;;;;;;;;;;5067849;28;20028;-87
2023/06/06 02:48:53;;;;;;;0.77;0.60;;;;;;;;;;5059780;28;20020;-86
2023/06/06 02:51:22;;;;;;;1.88;1.23;;;;;;;;;;5062187;28;20093;-85
2023/06/06 02:53:55;;;;;;;2.03;1.00;;;;;;;;;;5051348;28;20806;-84
2023/06/06 02:56:25;;;;;;;1.33;0.82;;;;;;;;;;5057800;28;20036;-85
2023/06/06 02:58:53;;;;;;;2.33;2.13;;;;;;;;;;5069564;28;20357;-85
2023/06/06 03:01:50;;;;;;;1.80;1.05;;;;;;;;;;5057035;28;20455;-85
2023/06/06 03:04:23;;;;;;;3.05;1.75;;;;;;;;;;5053738;28;20041;-86
2023/06/06 03:06:49;;;;;;;2.83;1.85;;;;;;;;;;5054987;28;20032;-85
2023/06/06 03:09:15;;;;;;;0.80;0.80;;;;;;;;;;5053109;28;20067;-84
2023/06/06 03:11:43;;;;;;;0.88;0.73;;;;;;;;;;5058367;28;20017;-84
2023/06/06 03:14:19;;;;;;;1.60;1.17;;;;;;;;;;5062777;28;20113;-86
2023/06/06 03:16:51;;;;;;;3.63;1.85;;;;;;;;;;5058803;28;20040;-85
2023/06/06 03:19:19;;;;;;;1.65;1.02;;;;;;;;;;5056824;28;20020;-85
2023/06/06 03:21:48;;;;;;;0.80;0.80;;;;;;;;;;5064317;28;20024;-87
2023/06/06 03:24:28;;;;;;;4.30;1.45;;;;;;;;;;5057834;28;20037;-85
2023/06/06 03:27:05;;;;;;;1.10;1.00;;;;;;;;;;5057527;28;20469;-87
2023/06/06 03:29:33;;;;;;;1.25;1.15;;;;;;;;;;5053205;28;20048;-85
2023/06/06 03:32:07;;;;;;;5.07;2.10;;;;;;;;;;5058368;28;20051;-86
2023/06/06 03:34:35;;;;;;;4.13;2.33;;;;;;;;;;5059910;28;20461;-88
2023/06/06 03:37:01;;;;;;;2.65;1.63;;;;;;;;;;5064106;28;20032;-87
2023/06/06 03:39:33;;;;;;;2.45;1.75;;;;;;;;;;5063468;28;20040;-85
2023/06/06 03:42:02;;;;;;;1.42;1.20;;;;;;;;;;5060733;28;20400;-86
2023/06/06 03:44:28;;;;;;;2.08;1.52;;;;;;;;;;5061908;28;20043;-86
2023/06/06 03:46:53;;;;;;;2.40;1.63;;;;;;;;;;5059029;28;20021;-85
2023/06/06 03:49:22;;;;;;;2.58;1.38;;;;;;;;;;5066273;28;20126;-87
2023/06/06 03:51:47;;;;;;;1.95;1.58;;;;;;;;;;5066259;28;20021;-84
2023/06/06 03:54:13;;;;;;;1.67;1.00;;;;;;;;;;5058515;28;20032;-84
2023/06/06 03:56:42;;;;;;;1.27;0.52;;;;;;;;;;5059263;28;20033;-85
2023/06/06 03:59:11;;;;;;;0.57;0.57;;;;;;;;;;5053030;28;20027;-84
2023/06/06 04:01:37;;;;;;;0.68;0.63;;;;;;;;;;5060988;28;20024;-83
2023/06/06 04:04:03;;;;;;;1.65;0.93;;;;;;;;;;5054479;28;20029;-85
2023/06/06 04:06:28;;;;;;;1.45;0.93;;;;;;;;;;5054135;28;20087;-85
2023/06/06 04:08:58;;;;;;;1.70;0.80;;;;;;;;;;5053484;28;20087;-84
2023/06/06 04:11:24;;;;;;;1.92;1.15;;;;;;;;;;5056259;28;20102;-84
2023/06/06 04:13:49;;;;;;;0.45;0.45;;;;;;;;;;5065764;28;20029;-82
2023/06/06 04:16:15;;;;;;;1.30;0.90;;;;;;;;;;5063957;28;20103;-84
2023/06/06 04:18:43;;;;;;;0.45;0.32;;;;;;;;;;5051813;28;20044;-84
2023/06/06 04:21:08;;;;;;;3.50;1.48;;;;;;;;;;5057182;28;20120;-84
2023/06/06 04:23:34;;;;;;;0.95;0.52;;;;;;;;;;5069771;28;20099;-85
2023/06/06 04:26:02;;;;;;;2.38;1.08;;;;;;;;;;5061254;28;20036;-85
2023/06/06 04:28:31;;;;;;;0.47;0.47;;;;;;;;;;5069905;28;20047;-85
2023/06/06 04:30:57;;;;;;;0.50;0.30;;;;;;;;;;5067188;28;20025;-87
2023/06/06 04:36:14;;;;;;;0.90;0.60;;;;;;;;;;5050798;28;20044;-85
2023/06/06 04:38:40;;;;;;;1.20;0.60;;;;;;;;;;5054739;28;20020;-86
2023/06/06 04:41:08;;;;;;;1.35;0.60;;;;;;;;;;5054632;28;21639;-84
2023/06/06 04:43:36;;;;;;;1.00;0.60;;;;;;;;;;5059788;28;20052;-85
2023/06/06 04:46:03;;;;;;;5.95;0.45;;;;;;;;;;5059684;28;20526;-88
2023/06/06 04:48:28;;;;;;;1.30;0.68;;;;;;;;;;5060371;28;20028;-91
2023/06/06 04:50:56;;;;;;;1.08;0.90;;;;;;;;;;5062012;28;20029;-87
2023/06/06 04:53:23;;;;;;;0.52;0.40;;;;;;;;;;5060533;28;20035;-88
2023/06/06 04:55:49;;;;;;;0.98;0.82;;;;;;;;;;5060205;28;20024;-88
2023/06/06 04:58:16;;;;;;;0.52;0.50;;;;;;;;;;5059501;28;20024;-89
2023/06/06 05:00:45;;;;;;;0.77;0.77;;;;;;;;;;5057042;28;20536;-88
2023/06/06 05:03:11;;;;;;;0.65;0.60;;;;;;;;;;5055697;28;20122;-87
2023/06/06 05:05:36;;;;;;;3.35;0.88;;;;;;;;;;5052632;28;20074;-88
2023/06/06 05:08:02;;;;;;;1.83;0.73;;;;;;;;;;5065741;28;20028;-87
2023/06/06 05:10:28;;;;;;;1.05;0.60;;;;;;;;;;5059586;28;20060;-89
2023/06/06 05:12:53;;;;;;;1.15;0.75;;;;;;;;;;5066219;28;20167;-89
2023/06/06 05:15:19;;;;;;;0.50;0.50;;;;;;;;;;5061045;28;20417;-88
2023/06/06 05:17:57;;;;;;;2.00;0.82;;;;;;;;;;5060138;28;20024;-87
2023/06/06 05:20:25;;;;;;;1.50;0.60;;;;;;;;;;5051019;28;20028;-86
2023/06/06 05:22:51;;;;;;;1.40;1.02;;;;;;;;;;5060977;28;20849;-86
2023/06/06 05:25:16;;;;;;;0.60;0.50;;;;;;;;;;5061762;28;20025;-87
2023/06/06 05:27:41;;;;;;;0.57;0.43;;;;;;;;;;5064219;28;20171;-87
2023/06/06 05:30:07;;;;;;;1.02;0.47;;;;;;;;;;5058738;28;20037;-86
2023/06/06 05:32:33;;;;;;;0.43;0.40;;;;;;;;;;5055699;28;20024;-87
2023/06/06 05:35:01;;;;;;;7.80;0.45;;;;;;;;;;5059027;28;20448;-87
2023/06/06 05:37:28;;;;;;;0.35;0.35;;;;;;;;;;5062377;28;20028;-87
2023/06/06 05:39:53;;;;;;;3.33;0.75;;;;;;;;;;5058290;28;20020;-89
2023/06/06 05:42:19;;;;;;;4.97;1.08;;;;;;;;;;5065532;28;20116;-89
2023/06/06 05:44:45;;;;;;;0.20;0.20;;;;;;;;;;5051500;28;20033;-89
2023/06/06 05:47:11;;;;;;;0.30;0.22;;;;;;;;;;5054933;28;20024;-91
2023/06/06 05:49:37;;;;;;;0.65;0.60;;;;;;;;;;5058036;28;20020;-90
2023/06/06 05:52:04;;;;;;;0.17;0.17;;;;;;;;;;5060189;28;20021;-90
2023/06/06 05:54:29;;;;;;;0.88;0.63;;;;;;;;;;5057664;28;20037;-89
2023/06/06 05:56:57;;;;;;;0.73;0.45;;;;;;;;;;5055183;28;20035;-88
2023/06/06 05:59:22;;;;;;;0.43;0.30;;;;;;;;;;5053690;28;20025;-90
2023/06/06 06:01:49;;;;;;;0.57;0.57;;;;;;;;;;5054087;28;20059;-88
2023/06/06 06:04:23;;;;;;;1.17;0.52;;;;;;;;;;5061299;28;20032;-88
2023/06/06 06:06:49;;;;;;;0.50;0.45;;;;;;;;;;5059585;28;20124;-90
2023/06/06 06:09:16;;;;;;;1.25;0.77;;;;;;;;;;5064257;28;20024;-86
2023/06/06 06:11:41;;;;;;;0.30;0.30;;;;;;;;;;5062072;28;20035;-85
2023/06/06 06:14:07;;;;;;;0.73;0.40;;;;;;;;;;5055707;28;20096;-87
2023/06/06 06:16:32;;;;;;;0.45;0.30;;;;;;;;;;5051919;28;20124;-89
2023/06/06 06:18:58;;;;;;;1.17;0.52;;;;;;;;;;5057926;28;20056;-90
2023/06/06 06:21:24;;;;;;;0.52;0.52;;;;;;;;;;5055077;28;20040;-90
2023/06/06 06:23:50;;;;;;;0.20;0.20;;;;;;;;;;5050809;28;20103;-90
2023/06/06 06:26:16;;;;;;;1.05;0.40;;;;;;;;;;5053170;28;20151;-86
2023/06/06 06:28:42;;;;;;;1.20;0.70;;;;;;;;;;5050899;28;20053;-86
2023/06/06 06:31:07;;;;;;;4.47;0.73;;;;;;;;;;5054265;28;20048;-85
2023/06/06 06:33:33;;;;;;;0.85;0.50;;;;;;;;;;5057487;28;20118;-87
2023/06/06 06:36:01;;;;;;;0.63;0.32;;;;;;;;;;5048595;28;20025;-86
2023/06/06 06:38:26;;;;;;;1.50;0.93;;;;;;;;;;5052760;28;20021;-88
2023/06/06 06:40:53;;;;;;;0.45;0.32;;;;;;;;;;5056256;28;20025;-87
2023/06/06 06:43:18;;;;;;;1.70;0.65;;;;;;;;;;5051811;28;20060;-89
2023/06/06 06:45:44;;;;;;;0.55;0.55;;;;;;;;;;5057438;28;20433;-90
2023/06/06 06:48:09;;;;;;;0.95;0.50;;;;;;;;;;5060212;28;20419;-89
2023/06/06 06:50:35;;;;;;;0.60;0.60;;;;;;;;;;5065684;28;20024;-88
2023/06/06 06:53:02;;;;;;;0.40;0.38;;;;;;;;;;5062636;28;20028;-88
2023/06/06 06:55:27;;;;;;;0.25;0.20;;;;;;;;;;5062554;28;20433;-87
2023/06/06 06:57:53;;;;;;;0.63;0.30;;;;;;;;;;5060251;28;20048;-88
2023/06/06 07:00:23;;;;;;;0.55;0.38;;;;;;;;;;5059432;28;20056;-88
2023/06/06 07:02:50;;;;;;;0.75;0.47;;;;;;;;;;5063376;28;20028;-87
2023/06/06 07:05:16;;;;;;;0.85;0.43;;;;;;;;;;5061023;28;20029;-88
2023/06/06 07:07:53;;;;;;;0.40;0.28;;;;;;;;;;5058515;28;20167;-88
2023/06/06 07:10:20;;;;;;;2.97;0.75;;;;;;;;;;5062601;28;22125;-87
2023/06/06 07:12:47;;;;;;;0.60;0.38;;;;;;;;;;5063740;28;20024;-89
2023/06/06 07:15:12;;;;;;;0.75;0.70;;;;;;;;;;5052626;28;20032;-88
2023/06/06 07:17:38;;;;;;;0.55;0.40;;;;;;;;;;5057748;28;20041;-87
2023/06/06 07:20:05;;;;;;;0.63;0.60;;;;;;;;;;5060083;28;20120;-90
2023/06/06 07:22:36;;;;;;;0.43;0.40;;;;;;;;;;5063365;28;20020;-89
2023/06/06 07:25:03;;;;;;;0.35;0.35;;;;;;;;;;5059079;28;20024;-89
2023/06/06 07:27:29;;;;;;;4.63;0.90;;;;;;;;;;5065889;28;20039;-90
2023/06/06 07:29:54;;;;;;;0.50;0.50;;;;;;;;;;5062909;28;20041;-88
2023/06/06 07:32:20;;;;;;;0.30;0.30;;;;;;;;;;5051262;28;20040;-90
2023/06/06 07:34:46;;;;;;;0.60;0.47;;;;;;;;;;5064077;28;20021;-90
2023/06/06 07:37:11;;;;;;;0.95;0.63;;;;;;;;;;5057515;28;20029;-89
2023/06/06 07:39:37;;;;;;;0.55;0.50;;;;;;;;;;5059352;28;20402;-91
2023/06/06 07:42:02;;;;;;;0.35;0.35;;;;;;;;;;5059442;28;20059;-86
2023/06/06 07:44:28;;;;;;;1.10;0.70;;;;;;;;;;5058626;28;20086;-88
2023/06/06 07:46:53;;;;;;;0.40;0.40;;;;;;;;;;5052096;28;20037;-85
2023/06/06 07:49:18;;;;;;;1.10;0.57;;;;;;;;;;5059457;28;20044;-88
2023/06/06 07:51:46;;;;;;;1.30;0.50;;;;;;;;;;5065827;28;20047;-87
2023/06/06 07:54:11;;;;;;;1.42;0.80;;;;;;;;;;5055810;28;20104;-86
2023/06/06 07:56:37;;;;;;;0.98;0.50;;;;;;;;;;5065391;28;20412;-88
2023/06/06 07:59:03;;;;;;;0.30;0.30;;;;;;;;;;5048715;28;20052;-87
2023/06/06 08:01:29;;;;;;;0.73;0.47;;;;;;;;;;5048368;28;20025;-88
2023/06/06 08:03:55;;;;;;;1.05;0.77;;;;;;;;;;5062339;28;20047;-91
2023/06/06 08:06:23;;;;;;;0.38;0.38;;;;;;;;;;5063168;28;20449;-87
2023/06/06 08:08:49;;;;;;;2.95;0.68;;;;;;;;;;5058733;28;20215;-89
2023/06/06 08:11:15;;;;;;;1.70;0.80;;;;;;;;;;5055602;28;20462;-88
2023/06/06 08:13:41;;;;;;;1.05;0.70;;;;;;;;;;5054986;28;20055;-86
2023/06/06 08:16:07;;;;;;;0.43;0.43;;;;;;;;;;5063384;28;20024;-87
2023/06/06 08:18:32;;;;;;;0.82;0.60;;;;;;;;;;5053686;28;20040;-88
2023/06/06 08:20:58;;;;;;;1.20;0.50;;;;;;;;;;5052810;28;20452;-88
2023/06/06 08:23:23;;;;;;;0.43;0.30;;;;;;;;;;5060878;28;20037;-88
2023/06/06 08:25:55;;;;;;;1.27;0.47;;;;;;;;;;5048204;28;20112;-85
2023/06/06 08:28:30;;;;;;;0.40;0.40;;;;;;;;;;5048775;28;20073;-89
2023/06/06 08:30:55;;;;;;;1.02;0.60;;;;;;;;;;5054476;28;20037;-89
2023/06/06 08:33:21;;;;;;;3.40;0.80;;;;;;;;;;5058758;28;20079;-88
2023/06/06 08:35:47;;;;;;;0.95;0.65;;;;;;;;;;5056696;28;20028;-89
2023/06/06 08:38:13;;;;;;;0.50;0.43;;;;;;;;;;5063168;28;20465;-88
2023/06/06 08:40:39;;;;;;;0.80;0.50;;;;;;;;;;5064761;28;20024;-89
2023/06/06 08:43:06;;;;;;;0.82;0.55;;;;;;;;;;5048368;28;20087;-90
2023/06/06 08:45:32;;;;;;;0.75;0.50;;;;;;;;;;5059213;28;20354;-91
2023/06/06 08:47:58;;;;;;;0.60;0.60;;;;;;;;;;5061811;28;20085;-84
2023/06/06 08:50:26;;;;;;;1.48;0.70;;;;;;;;;;5057969;28;20033;-86
2023/06/06 08:52:52;;;;;;;0.73;0.65;;;;;;;;;;5055932;28;20032;-88
2023/06/06 08:55:18;;;;;;;0.98;0.65;;;;;;;;;;5054916;28;20528;-87
2023/06/06 08:57:47;;;;;;;0.93;0.73;;;;;;;;;;5052465;28;20033;-88
2023/06/06 09:00:23;;;;;;;1.50;0.90;;;;;;;;;;5060591;28;20476;-89
2023/06/06 09:02:51;;;;;;;0.50;0.47;;;;;;;;;;5057046;28;20465;-88
2023/06/06 09:05:21;;;;;;;1.45;0.60;;;;;;;;;;5059562;28;20031;-88
2023/06/06 09:07:51;;;;;;;2.53;1.40;;;;;;;;;;5055056;28;20028;-86
2023/06/06 09:10:17;;;;;;;0.93;0.70;;;;;;;;;;5050580;28;20056;-85
2023/06/06 09:12:45;;;;;;;1.65;0.75;;;;;;;;;;5058239;28;20120;-86
2023/06/06 09:15:11;;;;;;;1.10;0.75;;;;;;;;;;5052654;28;20028;-86
2023/06/06 09:17:37;;;;;;;1.00;0.52;;;;;;;;;;5061859;28;20067;-86
2023/06/06 09:20:06;;;;;;;1.15;0.73;;;;;;;;;;5055936;28;20099;-87
2023/06/06 09:22:41;;;;;;;1.35;0.88;;;;;;;;;;5050698;28;20029;-85
2023/06/06 09:25:24;;;;;;;0.93;0.82;;;;;;;;;;5060525;28;20115;-87
2023/06/06 09:27:58;;;;;;;0.73;0.63;;;;;;;;;;5055142;28;20032;-87
2023/06/06 09:30:25;;;;;;;3.10;1.08;;;;;;;;;;5060034;28;20123;-86
2023/06/06 09:32:56;;;;;;;1.17;0.88;;;;;;;;;;5058604;28;20060;-86
2023/06/06 09:35:22;;;;;;;1.73;0.93;;;;;;;;;;5060724;28;20036;-86
2023/06/06 09:37:48;;;;;;;3.13;1.40;;;;;;;;;;5062774;28;20036;-84
2023/06/06 09:40:18;;;;;;;1.05;0.93;;;;;;;;;;5059339;28;20528;-86
2023/06/06 09:42:48;;;;;;;1.55;0.57;;;;;;;;;;5051918;28;20358;-86
2023/06/06 09:45:15;;;;;;;1.08;0.75;;;;;;;;;;5057813;28;20056;-87
2023/06/06 09:47:44;;;;;;;1.30;0.75;;;;;;;;;;5054476;28;20032;-89
2023/06/06 09:50:19;;;;;;;1.60;0.95;;;;;;;;;;5066437;28;20031;-93
2023/06/06 09:53:13;;;;;;;1.25;0.77;;;;;;;;;;5063995;28;20036;-91
2023/06/06 09:55:52;;;;;;;1.35;0.80;;;;;;;;;;5067235;28;20440;-91
2023/06/06 09:58:57;;;;;;;4.32;0.73;;;;;;;;;;5057779;28;20055;-93
2023/06/06 10:01:30;;;;;;;1.17;0.75;;;;;;;;;;5058482;28;20029;-89
2023/06/06 10:03:58;;;;;;;3.67;1.65;;;;;;;;;;5053667;28;20029;-83
2023/06/06 10:06:33;;;;;;;4.78;2.22;;;;;;;;;;5063347;28;20033;-85
2023/06/06 10:09:05;;;;;;;1.13;0.85;;;;;;;;;;5059962;28;20040;-84
2023/06/06 10:11:32;;;;;;;0.68;0.60;;;;;;;;;;5067045;28;20056;-86
2023/06/06 10:14:05;;;;;;;0.35;0.32;;;;;;;;;;5062246;28;20029;-84
2023/06/06 10:16:34;;;;;;;1.33;0.85;;;;;;;;;;5061758;28;20035;-87
2023/06/06 10:19:00;;;;;;;1.08;0.73;;;;;;;;;;5055572;28;20037;-84
2023/06/06 10:21:28;;;;;;;1.08;0.73;;;;;;;;;;5065250;28;20031;-84
2023/06/06 10:23:54;;;;;;;1.35;0.98;;;;;;;;;;5061757;28;20024;-86
2023/06/06 10:26:38;;;;;;;0.93;0.82;;;;;;;;;;5063723;28;20062;-84
2023/06/06 10:29:09;;;;;;;0.50;0.50;;;;;;;;;;5060725;28;20063;-83
2023/06/06 10:31:49;;;;;;;2.70;0.93;;;;;;;;;;5064996;28;20025;-85
2023/06/06 10:34:20;;;;;;;0.93;0.70;;;;;;;;;;5058711;28;20059;-84
2023/06/06 10:36:45;;;;;;;1.13;0.82;;;;;;;;;;5064602;28;20112;-85
2023/06/06 10:39:29;;;;;;;0.55;0.52;;;;;;;;;;5070940;28;20052;-83
2023/06/06 10:42:06;;;;;;;0.80;0.65;;;;;;;;;;5064176;28;20021;-85
2023/06/06 10:44:46;;;;;;;0.98;0.82;;;;;;;;;;5065647;28;20812;-86
2023/06/06 10:47:20;;;;;;;;;;;;;;;;;;5061728;28;20040;-84
2023/06/06 10:50:10;;;;;;;0.88;0.65;;;;;;;;;;5051056;28;20373;-84
2023/06/06 10:52:45;;;;;;;2.92;0.93;;;;;;;;;;5062713;28;20037;-85
2023/06/06 10:55:17;;;;;;;2.88;0.90;;;;;;;;;;5056845;28;20035;-86
2023/06/06 10:58:10;;;;;;;1.00;0.55;;;;;;;;;;5062027;28;20025;-86
2023/06/06 11:00:40;;;;;;;0.40;0.40;;;;;;;;;;5040912;28;20041;-88
2023/06/06 11:03:13;;;;;;;0.98;0.63;;;;;;;;;;5060228;28;20025;-84
2023/06/06 11:06:00;;;;;;;1.60;0.80;;;;;;;;;;5055673;28;20112;-84
2023/06/06 11:08:44;;;;;;;0.70;0.60;;;;;;;;;;5055300;28;20067;-82
2023/06/06 11:11:27;;;;;;;0.60;0.60;;;;;;;;;;5061365;28;20033;-84
2023/06/06 11:14:03;;;;;;;1.90;0.80;;;;;;;;;;5062380;28;20052;-84
2023/06/06 11:16:37;;;;;;;1.30;0.90;;;;;;;;;;5064057;28;20028;-85
2023/06/06 11:19:04;;;;;;;1.02;0.70;;;;;;;;;;5065491;28;20038;-86
2023/06/06 11:21:33;;;;;;;2.55;0.90;;;;;;;;;;5060040;28;20115;-87
2023/06/06 11:23:59;;;;;;;1.57;0.57;;;;;;;;;;5059780;28;20104;-83
2023/06/06 11:26:29;;;;;;;0.90;0.82;;;;;;;;;;5064709;28;20751;-86
2023/06/06 11:28:56;;;;;;;0.93;0.80;;;;;;;;;;5060019;28;20053;-84
2023/06/06 11:31:26;;;;;;;0.60;0.60;;;;;;;;;;5057964;28;20029;-85
2023/06/06 11:33:52;;;;;;;1.70;0.73;;;;;;;;;;5058002;28;20111;-87
2023/06/06 11:36:20;;;;;;;0.90;0.70;;;;;;;;;;5055613;28;20056;-86
2023/06/06 11:38:46;;;;;;;1.25;0.95;;;;;;;;;;5057408;28;20021;-84
2023/06/06 11:41:12;;;;;;;7.68;0.95;;;;;;;;;;5061305;28;20023;-85
2023/06/06 11:43:48;;;;;;;0.90;0.77;;;;;;;;;;5062281;28;20474;-84
2023/06/06 11:46:13;;;;;;;1.23;0.82;;;;;;;;;;5057140;28;20165;-85
2023/06/06 11:48:39;;;;;;;1.38;0.73;;;;;;;;;;5059585;28;20515;-86
2023/06/06 11:51:12;;;;;;;1.30;0.88;;;;;;;;;;5066528;28;20025;-86
2023/06/06 11:53:38;;;;;;;1.15;0.90;;;;;;;;;;5058687;28;20103;-84
2023/06/06 11:56:05;;;;;;;1.50;1.23;;;;;;;;;;5064100;28;20528;-83
2023/06/06 11:58:31;;;;;;;1.83;0.90;;;;;;;;;;5063581;28;20098;-85
2023/06/06 12:00:59;;;;;;;1.80;0.95;;;;;;;;;;5058242;28;20032;-84
2023/06/06 12:03:27;;;;;;;1.45;1.10;;;;;;;;;;5057581;28;20093;-86
2023/06/06 12:06:04;;;;;;;1.65;0.88;;;;;;;;;;5054296;28;20033;-84
2023/06/06 12:08:39;;;;;;;2.00;1.33;;;;;;;;;;5055856;28;20048;-87
2023/06/06 12:11:56;;;;;;;6.53;1.13;;;;;;;;;;5056175;28;20397;-85
2023/06/06 12:14:23;;;;;;;1.80;1.00;;;;;;;;;;5018337;28;20057;-88
2023/06/06 12:16:49;;;;;;;1.35;0.90;;;;;;;;;;5054636;28;20040;-83
2023/06/06 12:19:16;;;;;;;2.78;1.25;;;;;;;;;;5067719;28;20986;-85
2023/06/06 12:21:49;;;;;;;3.10;1.15;;;;;;;;;;5062240;28;20035;-85
2023/06/06 12:24:20;;;;;;;2.33;1.25;;;;;;;;;;5055237;28;20037;-85
2023/06/06 12:27:02;;;;;;;0.85;0.80;;;;;;;;;;5058972;28;20050;-85
2023/06/06 12:29:33;;;;;;;1.85;1.17;;;;;;;;;;5051147;28;20052;-86
2023/06/06 12:32:17;;;;;;;1.02;0.82;;;;;;;;;;5047005;28;20523;-84
2023/06/06 12:34:49;;;;;;;1.60;0.85;;;;;;;;;;5040806;28;20021;-85
2023/06/06 12:37:18;;;;;;;2.08;1.00;;;;;;;;;;5055381;28;20028;-85
2023/06/06 12:39:45;;;;;;;1.05;0.80;;;;;;;;;;5055799;28;20029;-86
2023/06/06 12:42:18;;;;;;;2.53;1.45;;;;;;;;;;5061261;28;20036;-86
2023/06/06 12:44:44;;;;;;;1.10;1.00;;;;;;;;;;5058930;28;20036;-84
2023/06/06 12:47:14;;;;;;;1.00;0.90;;;;;;;;;;5049091;28;20078;-85
2023/06/06 12:49:40;;;;;;;1.25;1.00;;;;;;;;;;5065531;28;20082;-86
2023/06/06 12:52:06;;;;;;;1.42;1.00;;;;;;;;;;5064125;28;20397;-84
2023/06/06 12:54:34;;;;;;;2.25;1.20;;;;;;;;;;5063694;28;20032;-87
2023/06/06 12:57:00;;;;;;;2.17;1.10;;;;;;;;;;5061548;28;20048;-85
2023/06/06 12:59:26;;;;;;;1.90;1.20;;;;;;;;;;5058727;28;20029;-84
2023/06/06 13:01:53;;;;;;;0.93;0.77;;;;;;;;;;5058226;28;20087;-84
2023/06/06 13:04:19;;;;;;;1.67;1.10;;;;;;;;;;5060524;28;20028;-83
2023/06/06 13:06:44;;;;;;;1.88;1.00;;;;;;;;;;5056094;28;20032;-86
2023/06/06 13:09:11;;;;;;;0.75;0.65;;;;;;;;;;5058338;28;20063;-86
2023/06/06 13:11:37;;;;;;;3.10;1.65;;;;;;;;;;5064217;28;20025;-87
2023/06/06 13:14:02;;;;;;;2.03;1.10;;;;;;;;;;5053524;28;20170;-86
2023/06/06 13:16:28;;;;;;;1.75;1.00;;;;;;;;;;5056268;28;20502;-85
2023/06/06 13:18:54;;;;;;;2.75;1.27;;;;;;;;;;5055276;28;20035;-87
2023/06/06 13:21:22;;;;;;;3.00;1.52;;;;;;;;;;5060448;28;20040;-84
2023/06/06 13:23:47;;;;;;;1.63;0.85;;;;;;;;;;5052814;28;20043;-85
2023/06/06 13:26:13;;;;;;;1.90;1.23;;;;;;;;;;5064174;28;20028;-85
2023/06/06 13:28:38;;;;;;;1.13;0.70;;;;;;;;;;5059931;28;20069;-85
2023/06/06 13:31:04;;;;;;;1.17;0.80;;;;;;;;;;5054432;28;20047;-85
2023/06/06 13:33:30;;;;;;;1.88;1.00;;;;;;;;;;5056483;28;20497;-86
2023/06/06 13:35:56;;;;;;;8.23;1.05;;;;;;;;;;5062177;28;20055;-88
2023/06/06 13:38:23;;;;;;;2.40;1.17;;;;;;;;;;5061443;28;20393;-86
2023/06/06 13:40:50;;;;;;;2.05;1.23;;;;;;;;;;5049136;28;20553;-86
2023/06/06 13:43:15;;;;;;;2.10;1.15;;;;;;;;;;5048309;28;20021;-88
2023/06/06 13:45:41;;;;;;;1.63;0.98;;;;;;;;;;5058316;28;20082;-87
2023/06/06 13:48:07;;;;;;;2.20;1.00;;;;;;;;;;5053922;28;20036;-86
2023/06/06 13:50:33;;;;;;;2.17;1.38;;;;;;;;;;5064897;28;20062;-85
2023/06/06 13:52:58;;;;;;;1.13;0.63;;;;;;;;;;5066661;28;20112;-86
2023/06/06 13:55:24;;;;;;;0.73;0.65;;;;;;;;;;5064702;28;20103;-86
2023/06/06 13:57:52;;;;;;;1.98;0.90;;;;;;;;;;5059485;28;20047;-85
2023/06/06 14:00:21;;;;;;;1.55;1.02;;;;;;;;;;5058698;28;20120;-85
2023/06/06 14:02:47;;;;;;;1.38;0.80;;;;;;;;;;5060667;28;20048;-88
2023/06/06 14:05:13;;;;;;;2.05;1.10;;;;;;;;;;5048680;28;20075;-85
2023/06/06 14:07:38;;;;;;;1.65;0.80;;;;;;;;;;5045845;28;20033;-85
2023/06/06 14:10:06;;;;;;;1.05;0.68;;;;;;;;;;5054590;28;20027;-84
2023/06/06 14:12:32;;;;;;;0.90;0.82;;;;;;;;;;5049774;28;20017;-84
2023/06/06 14:14:58;;;;;;;0.80;0.70;;;;;;;;;;5048743;28;20044;-85
2023/06/06 14:17:24;;;;;;;1.90;0.82;;;;;;;;;;5056396;28;20072;-86
2023/06/06 14:19:54;;;;;;;1.48;0.80;;;;;;;;;;5043961;28;20472;-84
2023/06/06 14:22:34;;;;;;;1.33;0.88;;;;;;;;;;5053307;28;20025;-87
2023/06/06 14:24:59;;;;;;;1.00;0.68;;;;;;;;;;5053499;28;20021;-86
2023/06/06 14:27:29;;;;;;;1.08;0.70;;;;;;;;;;5058982;28;20051;-86
2023/06/06 14:29:55;;;;;;;1.98;0.98;;;;;;;;;;5048087;28;20148;-85
2023/06/06 14:32:23;;;;;;;1.33;0.90;;;;;;;;;;5055650;28;20103;-85
2023/06/06 14:34:49;;;;;;;1.77;0.55;;;;;;;;;;5064267;28;20028;-85
2023/06/06 14:37:14;;;;;;;1.55;0.80;;;;;;;;;;5055959;28;20384;-85
2023/06/06 14:39:40;;;;;;;2.53;0.80;;;;;;;;;;5054121;28;20036;-85
2023/06/06 14:42:07;;;;;;;0.63;0.47;;;;;;;;;;5053828;28;20076;-84
2023/06/06 14:44:36;;;;;;;1.33;0.93;;;;;;;;;;5057098;28;20388;-86
2023/06/06 14:47:03;;;;;;;2.80;1.05;;;;;;;;;;5048313;28;20379;-84
2023/06/06 14:49:29;;;;;;;1.20;0.65;;;;;;;;;;5060801;28;20036;-85
2023/06/06 14:51:55;;;;;;;1.05;0.77;;;;;;;;;;5053568;28;20056;-84
2023/06/06 14:54:20;;;;;;;1.67;0.75;;;;;;;;;;5048143;28;20049;-84
2023/06/06 14:56:45;;;;;;;1.60;0.95;;;;;;;;;;5056926;28;20099;-85